Time;durP1;ratioP1;P1;durP2;ratioP2;P2;SDS_P1;SDS_P2;PMS_P1;PMS_P2;Temp;Humidity;BMP_temperature;BMP_pressure;BME280_temperature;BME280_humidity;BME280_pressure;Samples;Min_cycle;Max_cycle;Signal;HPM_P1;HPM_P2
2021/08/30 00:01:20;;;;;;;14.30;8.10;;;;;;;;;;4348786;33;20616;-78
2021/08/30 00:03:48;;;;;;;10.98;7.22;;;;;;;;;;4335297;33;20155;-78
2021/08/30 00:06:29;;;;;;;14.30;7.75;;;;;;;;;;4333733;33;20187;-78
2021/08/30 00:08:54;;;;;;;10.77;7.10;;;;;;;;;;4333302;33;20186;-78
2021/08/30 00:11:42;;;;;;;10.82;7.43;;;;;;;;;;4333265;33;20230;-78
2021/08/30 00:14:08;;;;;;;11.73;7.80;;;;;;;;;;4328899;33;20205;-78
2021/08/30 00:16:36;;;;;;;9.93;6.82;;;;;;;;;;4333915;33;20593;-78
2021/08/30 00:19:02;;;;;;;12.27;7.57;;;;;;;;;;4333259;33;20180;-78
2021/08/30 00:21:34;;;;;;;12.43;7.60;;;;;;;;;;4334127;33;20209;-77
2021/08/30 00:24:03;;;;;;;14.27;7.80;;;;;;;;;;4341146;33;20233;-78
2021/08/30 00:26:37;;;;;;;15.00;7.93;;;;;;;;;;4347988;33;20193;-78
2021/08/30 00:32:05;;;;;;;11.52;7.50;;;;;;;;;;4361282;32;20173;-78
2021/08/30 00:34:53;;;;;;;13.05;7.12;;;;;;;;;;4337270;33;20159;-79
2021/08/30 00:37:31;;;;;;;10.40;7.12;;;;;;;;;;4330141;33;20210;-78
2021/08/30 00:39:59;;;;;;;10.73;7.28;;;;;;;;;;4346485;33;20131;-78
2021/08/30 00:43:18;;;;;;;12.10;7.78;;;;;;;;;;4333270;33;20201;-79
2021/08/30 00:45:28;;;;;;;13.57;7.70;;;;;;;;;;4340548;33;20163;-78
2021/08/30 00:48:13;;;;;;;;;;;;;;;;;;;;;
2021/08/30 00:50:39;;;;;;;12.07;7.68;;;;;;;;;;4346942;33;20140;-78
2021/08/30 00:53:05;;;;;;;9.90;6.85;;;;;;;;;;4344892;33;20186;-78
2021/08/30 00:55:33;;;;;;;12.52;7.72;;;;;;;;;;4332641;33;20588;-78
2021/08/30 00:58:08;;;;;;;10.13;6.93;;;;;;;;;;4332756;33;20160;-78
2021/08/30 01:00:36;;;;;;;12.93;7.57;;;;;;;;;;4343528;33;20220;-78
2021/08/30 01:03:43;;;;;;;14.07;7.80;;;;;;;;;;4346926;33;20190;-77
2021/08/30 01:06:20;;;;;;;11.88;7.20;;;;;;;;;;4351419;32;20166;-78
2021/08/30 01:09:00;;;;;;;15.30;7.93;;;;;;;;;;4351557;32;20194;-78
2021/08/30 01:12:13;;;;;;;;;;;;;;;;;;;;;
2021/08/30 01:14:57;;;;;;;9.98;7.45;;;;;;;;;;4345810;33;20170;-78
2021/08/30 01:26:59;;;;;;;14.02;8.57;;;;;;;;;;4300182;33;20160;-78
2021/08/30 01:29:55;;;;;;;13.25;9.18;;;;;;;;;;4355436;32;20166;-78
2021/08/30 01:32:33;;;;;;;13.48;8.00;;;;;;;;;;4347463;33;20177;-78
2021/08/30 01:35:13;;;;;;;13.13;8.73;;;;;;;;;;4347238;33;20174;-78
2021/08/30 01:37:39;;;;;;;14.05;8.68;;;;;;;;;;4344310;33;20167;-78
2021/08/30 01:40:24;;;;;;;12.60;8.20;;;;;;;;;;4354247;33;20287;-78
2021/08/30 01:42:58;;;;;;;15.52;8.85;;;;;;;;;;4339113;33;20197;-77
2021/08/30 01:45:24;;;;;;;15.38;8.75;;;;;;;;;;4332434;33;20187;-78
2021/08/30 01:47:51;;;;;;;14.32;9.27;;;;;;;;;;4344750;33;20167;-78
2021/08/30 01:50:19;;;;;;;14.07;9.18;;;;;;;;;;4332542;33;20166;-78
2021/08/30 01:52:48;;;;;;;15.23;9.32;;;;;;;;;;4331200;33;20187;-78
2021/08/30 01:55:49;;;;;;;15.65;9.82;;;;;;;;;;4346173;33;20229;-78
2021/08/30 02:00:49;;;;;;;14.65;9.52;;;;;;;;;;4345419;33;20550;-77
2021/08/30 02:03:27;;;;;;;15.68;9.65;;;;;;;;;;4331703;33;20182;-78
2021/08/30 02:06:00;;;;;;;14.93;9.60;;;;;;;;;;4332363;33;20563;-77
2021/08/30 02:08:34;;;;;;;13.62;9.35;;;;;;;;;;4332112;33;20517;-78
2021/08/30 02:11:17;;;;;;;19.87;10.00;;;;;;;;;;4331856;33;20159;-77
2021/08/30 02:14:02;;;;;;;14.18;8.82;;;;;;;;;;4358302;32;20568;-78
2021/08/30 02:19:30;;;;;;;15.50;10.57;;;;;;;;;;4346981;33;20520;-77
2021/08/30 02:22:16;;;;;;;21.48;11.00;;;;;;;;;;4346486;33;20172;-77
2021/08/30 02:24:45;;;;;;;18.17;11.55;;;;;;;;;;4346589;32;20261;-78
2021/08/30 02:27:49;;;;;;;18.45;11.95;;;;;;;;;;4346853;33;20158;-77
2021/08/30 02:30:21;;;;;;;18.48;11.77;;;;;;;;;;4287316;33;20164;-78
2021/08/30 02:36:17;;;;;;;;;;;;;;;;;;;;;
2021/08/30 02:41:41;;;;;;;22.27;13.30;;;;;;;;;;4241973;33;20237;-78
2021/08/30 02:44:12;;;;;;;20.73;12.88;;;;;;;;;;4257561;33;20523;-78
2021/08/30 02:46:44;;;;;;;25.27;13.65;;;;;;;;;;4261303;33;20531;-78
2021/08/30 02:49:13;;;;;;;21.62;12.52;;;;;;;;;;4328787;33;20163;-78
2021/08/30 02:51:42;;;;;;;22.37;12.82;;;;;;;;;;4332066;33;20216;-78
2021/08/30 02:54:08;;;;;;;21.15;12.77;;;;;;;;;;4347274;33;20159;-78
2021/08/30 02:56:36;;;;;;;20.35;12.57;;;;;;;;;;4334363;33;20563;-78
2021/08/30 03:02:05;;;;;;;20.08;12.93;;;;;;;;;;4348420;33;20182;-77
2021/08/30 03:04:39;;;;;;;20.20;12.73;;;;;;;;;;4334683;33;20194;-77
2021/08/30 03:07:07;;;;;;;22.40;12.75;;;;;;;;;;4334389;33;20183;-78
2021/08/30 03:09:35;;;;;;;25.10;14.05;;;;;;;;;;4334063;33;20513;-78
2021/08/30 03:12:01;;;;;;;22.35;13.43;;;;;;;;;;4334490;33;20545;-78
2021/08/30 03:14:27;;;;;;;22.65;14.10;;;;;;;;;;4342800;32;20166;-78
2021/08/30 03:16:55;;;;;;;23.30;13.80;;;;;;;;;;4349225;33;20539;-78
2021/08/30 03:19:26;;;;;;;21.85;14.25;;;;;;;;;;4362442;32;20227;-78
2021/08/30 03:21:56;;;;;;;28.55;14.93;;;;;;;;;;4348934;33;20159;-78
2021/08/30 03:24:31;;;;;;;;;;;;;;;;;;;;;
2021/08/30 03:29:52;;;;;;;26.35;14.20;;;;;;;;;;4346914;32;20178;-78
2021/08/30 03:32:19;;;;;;;22.62;14.13;;;;;;;;;;4345579;33;20483;-77
2021/08/30 03:34:44;;;;;;;26.60;15.43;;;;;;;;;;4346397;33;20253;-77
2021/08/30 03:37:10;;;;;;;28.42;15.73;;;;;;;;;;4345948;33;20155;-77
2021/08/30 03:39:35;;;;;;;29.58;14.77;;;;;;;;;;4345935;33;20156;-77
2021/08/30 03:42:03;;;;;;;25.67;15.50;;;;;;;;;;4351334;32;20164;-77
2021/08/30 03:44:29;;;;;;;22.55;14.40;;;;;;;;;;4348533;33;20643;-77
2021/08/30 03:47:39;;;;;;;25.77;14.80;;;;;;;;;;4349017;33;20167;-78
2021/08/30 03:49:56;;;;;;;26.87;15.07;;;;;;;;;;4357475;33;20167;-77
2021/08/30 03:52:37;;;;;;;28.73;16.15;;;;;;;;;;4339753;33;20637;-78
2021/08/30 03:55:23;;;;;;;25.35;15.35;;;;;;;;;;4333454;33;20150;-78
2021/08/30 03:58:09;;;;;;;25.83;14.73;;;;;;;;;;4338916;33;20247;-78
2021/08/30 04:00:37;;;;;;;30.23;17.17;;;;;;;;;;4333376;33;20493;-77
2021/08/30 04:03:08;;;;;;;32.13;15.85;;;;;;;;;;4344955;33;20254;-77
2021/08/30 04:05:41;;;;;;;28.20;15.85;;;;;;;;;;4348390;33;20461;-78
2021/08/30 04:08:10;;;;;;;24.58;14.87;;;;;;;;;;4348172;33;20190;-77
2021/08/30 04:10:44;;;;;;;23.65;14.52;;;;;;;;;;4347836;32;20155;-77
2021/08/30 04:13:18;;;;;;;28.90;16.15;;;;;;;;;;4348398;33;20524;-77
2021/08/30 04:18:57;;;;;;;26.55;16.17;;;;;;;;;;4286163;33;20145;-78
2021/08/30 04:21:25;;;;;;;28.87;15.90;;;;;;;;;;4348324;32;20182;-78
2021/08/30 04:23:50;;;;;;;24.08;15.27;;;;;;;;;;4360458;32;20190;-78
2021/08/30 04:26:23;;;;;;;26.98;16.75;;;;;;;;;;4348109;33;20523;-78
2021/08/30 04:28:59;;;;;;;27.23;16.20;;;;;;;;;;4360564;32;20580;-78
2021/08/30 04:31:28;;;;;;;30.90;16.80;;;;;;;;;;4360188;33;20234;-78
2021/08/30 04:34:04;;;;;;;28.48;17.15;;;;;;;;;;4347692;33;20221;-77
2021/08/30 04:36:33;;;;;;;28.00;16.62;;;;;;;;;;4361388;33;20134;-77
2021/08/30 04:39:00;;;;;;;29.33;17.75;;;;;;;;;;4347596;33;20219;-78
2021/08/30 04:41:25;;;;;;;24.85;15.82;;;;;;;;;;4347484;33;20189;-77
2021/08/30 04:44:00;;;;;;;30.20;17.77;;;;;;;;;;4347456;33;20187;-77
2021/08/30 04:46:28;;;;;;;25.77;16.33;;;;;;;;;;4348028;33;20209;-76
2021/08/30 04:49:13;;;;;;;28.20;16.42;;;;;;;;;;4347441;33;20738;-77
2021/08/30 04:51:38;;;;;;;24.83;15.82;;;;;;;;;;4360568;32;20565;-78
2021/08/30 04:54:03;;;;;;;28.50;16.77;;;;;;;;;;4347411;33;20222;-77
2021/08/30 04:56:29;;;;;;;29.65;17.52;;;;;;;;;;4347911;33;20643;-78
2021/08/30 04:58:56;;;;;;;28.23;16.37;;;;;;;;;;4347535;33;20166;-77
2021/08/30 05:01:25;;;;;;;23.98;15.48;;;;;;;;;;4347179;33;20190;-77
2021/08/30 05:03:58;;;;;;;26.05;16.25;;;;;;;;;;4332572;33;20179;-77
2021/08/30 05:06:23;;;;;;;25.70;16.62;;;;;;;;;;4332913;33;20191;-76
2021/08/30 05:08:57;;;;;;;27.77;17.33;;;;;;;;;;4332284;33;20152;-77
2021/08/30 05:12:17;;;;;;;30.15;16.98;;;;;;;;;;4332643;33;20166;-77
2021/08/30 05:14:23;;;;;;;27.67;16.73;;;;;;;;;;4333546;33;20171;-77
2021/08/30 05:16:51;;;;;;;30.95;17.23;;;;;;;;;;4332215;33;20186;-77
2021/08/30 05:19:17;;;;;;;25.73;16.00;;;;;;;;;;4329626;33;20242;-78
2021/08/30 05:22:03;;;;;;;25.85;16.77;;;;;;;;;;4331221;33;20556;-77
2021/08/30 05:24:28;;;;;;;28.45;16.92;;;;;;;;;;4329923;33;20164;-78
2021/08/30 05:27:36;;;;;;;;;;;;;;;;;;;;;
2021/08/30 05:30:29;;;;;;;28.23;16.60;;;;;;;;;;4320576;33;20147;-78
2021/08/30 05:32:59;;;;;;;23.40;15.85;;;;;;;;;;4338318;33;20182;-77
2021/08/30 05:35:24;;;;;;;26.10;15.40;;;;;;;;;;4356410;32;20164;-77
2021/08/30 05:37:50;;;;;;;24.55;15.82;;;;;;;;;;4356419;33;20201;-77
2021/08/30 05:40:25;;;;;;;32.75;16.60;;;;;;;;;;4357214;32;20250;-78
2021/08/30 05:43:04;;;;;;;29.17;18.30;;;;;;;;;;4356306;32;20577;-78
2021/08/30 05:45:33;;;;;;;25.50;15.23;;;;;;;;;;4357015;32;20170;-78
2021/08/30 05:47:59;;;;;;;24.10;15.48;;;;;;;;;;4344305;33;20158;-79
2021/08/30 05:50:52;;;;;;;26.23;15.90;;;;;;;;;;4344104;33;20205;-78
2021/08/30 05:53:19;;;;;;;25.90;15.48;;;;;;;;;;4340230;33;20171;-78
2021/08/30 05:55:55;;;;;;;27.42;15.50;;;;;;;;;;4345162;33;20173;-78
2021/08/30 05:58:25;;;;;;;26.30;16.37;;;;;;;;;;4356133;32;20197;-78
2021/08/30 06:00:55;;;;;;;27.23;16.42;;;;;;;;;;4344339;33;20156;-78
2021/08/30 06:03:24;;;;;;;26.12;15.13;;;;;;;;;;4343805;33;20179;-78
2021/08/30 06:06:00;;;;;;;30.98;16.50;;;;;;;;;;4345211;33;20135;-77
2021/08/30 06:08:25;;;;;;;31.85;16.50;;;;;;;;;;4343510;33;20213;-73
2021/08/30 06:11:05;;;;;;;;;;;;;;;;;;;;;
2021/08/30 06:13:31;;;;;;;23.60;16.83;;;;;;;;;;4330515;33;20148;-77
2021/08/30 06:16:05;;;;;;;25.60;15.38;;;;;;;;;;4337023;33;20187;-78
2021/08/30 06:18:31;;;;;;;28.77;16.62;;;;;;;;;;4329888;33;20606;-77
2021/08/30 06:20:56;;;;;;;25.77;14.70;;;;;;;;;;4329329;33;20247;-78
2021/08/30 06:23:30;;;;;;;23.70;15.68;;;;;;;;;;4330143;33;20230;-78
2021/08/30 06:25:57;;;;;;;25.00;15.95;;;;;;;;;;4355099;33;20167;-76
2021/08/30 06:28:25;;;;;;;28.65;16.58;;;;;;;;;;4345253;33;20162;-78
2021/08/30 06:31:00;;;;;;;25.92;16.23;;;;;;;;;;4346161;33;20614;-77
2021/08/30 06:33:36;;;;;;;26.95;16.30;;;;;;;;;;4346942;33;20222;-77
2021/08/30 06:36:11;;;;;;;27.05;16.10;;;;;;;;;;4344620;33;20210;-77
2021/08/30 06:38:36;;;;;;;22.50;15.27;;;;;;;;;;4342194;33;20182;-79
2021/08/30 06:41:01;;;;;;;25.17;15.73;;;;;;;;;;4332019;33;20175;-78
2021/08/30 06:43:37;;;;;;;25.37;15.48;;;;;;;;;;4332361;33;20597;-78
2021/08/30 06:46:02;;;;;;;28.45;15.88;;;;;;;;;;4340444;33;20189;-78
2021/08/30 06:48:28;;;;;;;26.37;16.70;;;;;;;;;;4346835;33;20167;-78
2021/08/30 06:50:56;;;;;;;27.85;16.85;;;;;;;;;;4335739;33;20337;-78
2021/08/30 06:53:21;;;;;;;22.52;14.52;;;;;;;;;;4344224;33;20168;-77
2021/08/30 06:55:47;;;;;;;28.45;16.45;;;;;;;;;;4336342;33;20631;-77
2021/08/30 06:58:28;;;;;;;26.12;16.15;;;;;;;;;;4346016;33;20221;-77
2021/08/30 07:01:07;;;;;;;23.60;15.82;;;;;;;;;;4358387;33;20194;-77
2021/08/30 07:03:53;;;;;;;29.73;17.05;;;;;;;;;;4345009;33;20246;-77
2021/08/30 07:06:33;;;;;;;25.30;15.40;;;;;;;;;;4358780;32;20597;-77
2021/08/30 07:09:25;;;;;;;26.45;15.52;;;;;;;;;;4357932;33;20240;-79
2021/08/30 07:11:59;;;;;;;27.17;16.05;;;;;;;;;;4352568;32;20171;-77
2021/08/30 07:14:36;;;;;;;25.55;15.32;;;;;;;;;;4345042;33;20567;-77
2021/08/30 07:17:02;;;;;;;23.98;15.00;;;;;;;;;;4356101;33;20612;-78
2021/08/30 07:19:30;;;;;;;23.25;15.27;;;;;;;;;;4357503;33;20187;-78
2021/08/30 07:21:55;;;;;;;23.48;14.87;;;;;;;;;;4332337;33;20194;-77
2021/08/30 07:24:41;;;;;;;25.42;14.30;;;;;;;;;;4343809;33;20625;-78
2021/08/30 07:27:12;;;;;;;26.10;14.77;;;;;;;;;;4332776;33;20233;-78
2021/08/30 07:29:50;;;;;;;24.20;14.65;;;;;;;;;;4342278;33;20156;-77
2021/08/30 07:32:37;;;;;;;25.83;14.85;;;;;;;;;;4358588;33;20182;-78
2021/08/30 07:35:01;;;;;;;20.73;13.55;;;;;;;;;;4336403;32;20195;-77
2021/08/30 07:37:38;;;;;;;27.00;15.05;;;;;;;;;;4342891;33;20160;-77
2021/08/30 07:40:09;;;;;;;22.87;14.70;;;;;;;;;;4344967;33;20261;-77
2021/08/30 07:42:47;;;;;;;26.67;14.50;;;;;;;;;;4358020;32;20187;-78
2021/08/30 07:45:30;;;;;;;23.17;13.35;;;;;;;;;;4330104;33;20211;-78
2021/08/30 07:47:55;;;;;;;20.52;14.43;;;;;;;;;;4331498;33;20240;-77
2021/08/30 07:50:21;;;;;;;22.23;13.85;;;;;;;;;;4331074;33;20167;-78
2021/08/30 07:52:55;;;;;;;20.17;13.27;;;;;;;;;;4330932;33;20202;-79
2021/08/30 07:55:20;;;;;;;19.42;12.95;;;;;;;;;;4335196;33;20166;-78
2021/08/30 07:57:46;;;;;;;21.48;13.38;;;;;;;;;;4345787;33;20282;-78
2021/08/30 08:00:13;;;;;;;20.92;14.63;;;;;;;;;;4345359;33;20171;-78
2021/08/30 08:02:51;;;;;;;;;;;;;;;;;;;;;
2021/08/30 08:05:17;;;;;;;21.92;12.85;;;;;;;;;;4346859;33;20185;-78
2021/08/30 08:07:42;;;;;;;20.65;12.70;;;;;;;;;;4344617;33;20149;-79
2021/08/30 08:10:08;;;;;;;19.67;11.73;;;;;;;;;;4345153;33;20166;-78
2021/08/30 08:12:44;;;;;;;21.25;12.68;;;;;;;;;;4346624;33;20229;-78
2021/08/30 08:15:31;;;;;;;20.77;13.20;;;;;;;;;;4357911;32;20169;-78
2021/08/30 08:18:03;;;;;;;25.20;13.65;;;;;;;;;;4300460;33;20172;-79
2021/08/30 08:20:31;;;;;;;18.77;12.80;;;;;;;;;;4300621;33;20239;-78
2021/08/30 08:22:56;;;;;;;17.92;11.50;;;;;;;;;;4357261;32;20221;-77
2021/08/30 08:25:22;;;;;;;20.25;12.45;;;;;;;;;;4358239;32;20167;-78
2021/08/30 08:27:47;;;;;;;19.25;10.88;;;;;;;;;;4345229;33;20160;-77
2021/08/30 08:30:13;;;;;;;22.20;11.75;;;;;;;;;;4345284;33;20213;-78
2021/08/30 08:32:42;;;;;;;25.52;13.75;;;;;;;;;;4345445;33;20164;-78
2021/08/30 08:35:08;;;;;;;23.75;11.68;;;;;;;;;;4345154;33;20623;-77
2021/08/30 08:37:33;;;;;;;27.70;12.20;;;;;;;;;;4357225;33;20261;-78
2021/08/30 08:43:03;;;;;;;23.55;11.40;;;;;;;;;;4333412;33;20250;-77
2021/08/30 08:45:42;;;;;;;23.05;11.95;;;;;;;;;;4357162;33;20160;-79
2021/08/30 08:48:07;;;;;;;18.23;10.55;;;;;;;;;;4344742;33;20217;-78
2021/08/30 08:50:51;;;;;;;21.27;11.12;;;;;;;;;;4344673;33;20706;-77
2021/08/30 08:53:17;;;;;;;23.20;11.05;;;;;;;;;;4360773;33;20219;-79
2021/08/30 08:55:45;;;;;;;21.73;11.95;;;;;;;;;;4346651;33;20163;-78
2021/08/30 08:58:22;;;;;;;20.83;11.25;;;;;;;;;;4347239;33;20190;-78
2021/08/30 09:01:25;;;;;;;24.17;11.70;;;;;;;;;;4347349;33;20170;-78
2021/08/30 09:03:53;;;;;;;21.85;10.98;;;;;;;;;;4359640;32;20224;-77
2021/08/30 09:06:26;;;;;;;21.30;12.20;;;;;;;;;;4359444;33;20605;-78
2021/08/30 09:09:14;;;;;;;18.35;10.73;;;;;;;;;;4359503;33;20158;-79
2021/08/30 09:12:01;;;;;;;24.23;11.40;;;;;;;;;;4346882;33;20167;-78
2021/08/30 09:14:26;;;;;;;22.27;11.48;;;;;;;;;;4359053;33;20167;-78
2021/08/30 09:17:06;;;;;;;21.05;11.50;;;;;;;;;;4345630;33;20217;-79
2021/08/30 09:19:32;;;;;;;18.58;10.93;;;;;;;;;;4329696;33;20194;-79
2021/08/30 09:21:57;;;;;;;23.08;11.82;;;;;;;;;;4338347;33;20549;-78
2021/08/30 09:24:24;;;;;;;21.67;10.55;;;;;;;;;;4344214;33;20167;-79
2021/08/30 09:26:53;;;;;;;25.40;12.25;;;;;;;;;;4343758;33;20182;-78
2021/08/30 09:29:27;;;;;;;15.88;10.68;;;;;;;;;;4342130;32;20187;-78
2021/08/30 09:32:11;;;;;;;19.12;10.80;;;;;;;;;;4331682;33;20186;-78
2021/08/30 09:34:52;;;;;;;;;;;;;;;;;;;;;
2021/08/30 09:37:24;;;;;;;21.55;10.90;;;;;;;;;;4339965;33;20151;-77
2021/08/30 09:39:51;;;;;;;22.25;10.68;;;;;;;;;;4332854;33;20159;-75
2021/08/30 09:42:24;;;;;;;15.90;9.63;;;;;;;;;;4341801;33;20217;-76
2021/08/30 09:44:54;;;;;;;21.25;10.38;;;;;;;;;;4348364;33;20221;-77
2021/08/30 09:47:25;;;;;;;19.30;9.98;;;;;;;;;;4350720;32;20254;-78
2021/08/30 09:49:52;;;;;;;21.42;10.43;;;;;;;;;;4344617;33;20147;-78
2021/08/30 09:52:18;;;;;;;18.67;10.02;;;;;;;;;;4356165;32;20213;-78
2021/08/30 09:54:46;;;;;;;19.55;10.05;;;;;;;;;;4356532;32;20245;-79
2021/08/30 09:57:18;;;;;;;23.00;10.02;;;;;;;;;;4344480;33;20237;-78
2021/08/30 09:59:52;;;;;;;22.83;10.73;;;;;;;;;;4339253;33;20210;-78
2021/08/30 10:02:18;;;;;;;18.98;9.57;;;;;;;;;;4330474;33;20194;-78
2021/08/30 10:04:46;;;;;;;21.20;9.70;;;;;;;;;;4356305;33;20272;-78
2021/08/30 10:07:17;;;;;;;21.58;10.48;;;;;;;;;;4347094;32;20156;-77
2021/08/30 10:10:02;;;;;;;;;;;;;;;;;;;;;
2021/08/30 10:12:48;;;;;;;;;;;;;;;;;;;;;
2021/08/30 10:15:40;;;;;;;18.27;9.20;;;;;;;;;;4352813;33;20213;-78
2021/08/30 10:18:08;;;;;;;19.08;8.27;;;;;;;;;;4342692;33;20198;-79
2021/08/30 10:20:39;;;;;;;16.80;9.20;;;;;;;;;;4356107;33;20264;-79
2021/08/30 10:23:09;;;;;;;17.45;8.00;;;;;;;;;;4356574;33;20185;-78
2021/08/30 10:25:36;;;;;;;19.67;8.50;;;;;;;;;;4344936;33;20131;-78
2021/08/30 10:28:19;;;;;;;17.70;8.10;;;;;;;;;;4356432;33;20164;-78
2021/08/30 10:30:59;;;;;;;16.75;8.45;;;;;;;;;;4357095;33;20159;-78
2021/08/30 10:33:47;;;;;;;17.27;8.65;;;;;;;;;;4355308;33;20190;-78
2021/08/30 10:36:32;;;;;;;;;;;;;;;;;;;;;
2021/08/30 10:39:02;;;;;;;17.92;9.00;;;;;;;;;;4359560;32;20611;-78
2021/08/30 10:41:56;;;;;;;16.00;8.40;;;;;;;;;;4346277;33;20185;-78
2021/08/30 10:44:28;;;;;;;16.98;8.95;;;;;;;;;;4346116;33;20209;-79
2021/08/30 10:47:01;;;;;;;15.90;8.73;;;;;;;;;;4346403;33;20166;-79
2021/08/30 10:50:02;;;;;;;16.55;8.88;;;;;;;;;;4346173;33;20155;-78
2021/08/30 10:52:40;;;;;;;17.35;8.90;;;;;;;;;;4316250;33;20160;-78
2021/08/30 10:55:21;;;;;;;16.80;8.32;;;;;;;;;;4342523;33;20221;-79
2021/08/30 10:57:51;;;;;;;18.45;8.65;;;;;;;;;;4345924;33;20182;-78
2021/08/30 11:00:43;;;;;;;18.05;8.50;;;;;;;;;;4346002;33;20151;-79
2021/08/30 11:03:08;;;;;;;15.57;7.78;;;;;;;;;;4358644;33;20516;-78
2021/08/30 11:05:34;;;;;;;14.85;7.65;;;;;;;;;;4356515;33;20218;-78
2021/08/30 11:08:00;;;;;;;17.17;8.00;;;;;;;;;;4351377;33;20156;-78
2021/08/30 11:10:28;;;;;;;12.60;7.20;;;;;;;;;;4340687;33;20608;-79
2021/08/30 11:13:05;;;;;;;14.73;7.65;;;;;;;;;;4349348;33;20175;-78
2021/08/30 11:15:31;;;;;;;13.75;7.47;;;;;;;;;;4343301;33;20166;-78
2021/08/30 11:17:57;;;;;;;14.90;8.48;;;;;;;;;;4354439;33;20156;-78
2021/08/30 11:20:23;;;;;;;13.77;7.57;;;;;;;;;;4345412;33;20171;-78
2021/08/30 11:22:52;;;;;;;13.90;7.45;;;;;;;;;;4358093;32;20776;-79
2021/08/30 11:25:18;;;;;;;11.55;7.68;;;;;;;;;;4358206;32;20189;-79
2021/08/30 11:27:43;;;;;;;10.90;7.20;;;;;;;;;;4346379;33;20595;-73
2021/08/30 11:30:19;;;;;;;;;;;;;;;;;;;;;
2021/08/30 11:32:48;;;;;;;15.85;8.93;;;;;;;;;;4345037;33;20182;-80
2021/08/30 11:35:20;;;;;;;15.73;8.70;;;;;;;;;;4345551;33;20249;-78
2021/08/30 11:37:45;;;;;;;14.45;8.02;;;;;;;;;;4361138;32;20159;-77
2021/08/30 11:40:11;;;;;;;17.67;8.77;;;;;;;;;;4345223;33;20537;-78
2021/08/30 11:43:05;;;;;;;15.27;8.60;;;;;;;;;;4345664;33;20194;-78
2021/08/30 11:45:31;;;;;;;14.52;8.55;;;;;;;;;;4355202;32;20186;-78
2021/08/30 11:47:56;;;;;;;14.65;8.10;;;;;;;;;;4335593;33;20159;-78
2021/08/30 11:50:21;;;;;;;14.70;8.50;;;;;;;;;;4341987;33;20157;-78
2021/08/30 11:52:59;;;;;;;;;;;;;;;;;;;;;
2021/08/30 11:55:31;;;;;;;14.50;9.02;;;;;;;;;;4331462;33;20488;-78
2021/08/30 11:58:04;;;;;;;17.58;8.85;;;;;;;;;;4335216;33;20186;-76
2021/08/30 12:00:35;;;;;;;14.85;8.63;;;;;;;;;;4330726;33;20186;-78
2021/08/30 12:03:33;;;;;;;16.12;8.07;;;;;;;;;;4330654;33;20178;-78
2021/08/30 12:05:58;;;;;;;16.85;8.50;;;;;;;;;;4328234;33;20197;-78
2021/08/30 12:08:24;;;;;;;16.65;8.00;;;;;;;;;;4330793;33;20191;-78
2021/08/30 12:10:49;;;;;;;15.15;8.18;;;;;;;;;;4335307;33;20230;-80
2021/08/30 12:15:52;;;;;;;14.40;7.95;;;;;;;;;;4346188;32;20143;-80
2021/08/30 12:18:19;;;;;;;12.00;7.72;;;;;;;;;;4346153;33;20517;-79
2021/08/30 12:20:47;;;;;;;11.77;7.65;;;;;;;;;;4348709;32;20268;-78
2021/08/30 12:23:28;;;;;;;11.27;7.60;;;;;;;;;;4347570;33;20193;-77
2021/08/30 12:26:04;;;;;;;14.40;8.10;;;;;;;;;;4344322;33;20151;-78
2021/08/30 12:28:32;;;;;;;18.98;7.82;;;;;;;;;;4352314;33;20169;-79
2021/08/30 12:30:57;;;;;;;13.02;7.78;;;;;;;;;;4347271;33;20489;-78
2021/08/30 12:33:28;;;;;;;12.07;7.97;;;;;;;;;;4356446;33;20162;-79
2021/08/30 12:36:03;;;;;;;18.48;8.13;;;;;;;;;;4356095;32;20234;-78
2021/08/30 12:38:36;;;;;;;16.27;8.43;;;;;;;;;;4361031;32;20189;-79
2021/08/30 12:41:22;;;;;;;14.82;7.50;;;;;;;;;;4348814;33;20226;-79
2021/08/30 12:43:48;;;;;;;16.02;7.80;;;;;;;;;;4346638;32;20607;-77
2021/08/30 12:46:24;;;;;;;15.43;7.50;;;;;;;;;;4341904;33;20158;-79
2021/08/30 12:49:10;;;;;;;10.85;7.40;;;;;;;;;;4351521;32;20214;-78
2021/08/30 12:51:38;;;;;;;14.40;6.80;;;;;;;;;;4332580;33;20159;-78
2021/08/30 12:54:25;;;;;;;12.37;7.45;;;;;;;;;;4357896;32;20194;-79
2021/08/30 12:56:57;;;;;;;13.02;7.10;;;;;;;;;;4359689;33;20162;-78
2021/08/30 12:59:30;;;;;;;10.25;6.87;;;;;;;;;;4357427;32;20159;-79
2021/08/30 13:02:28;;;;;;;11.68;5.95;;;;;;;;;;4352480;33;20245;-79
2021/08/30 13:05:36;;;;;;;11.23;5.50;;;;;;;;;;4290766;33;20160;-79
2021/08/30 13:08:01;;;;;;;9.63;5.50;;;;;;;;;;4330140;33;20171;-79
2021/08/30 13:10:26;;;;;;;8.80;5.18;;;;;;;;;;4359462;32;20201;-79
2021/08/30 13:12:52;;;;;;;9.13;5.22;;;;;;;;;;4346962;33;20623;-79
2021/08/30 13:15:27;;;;;;;10.23;5.85;;;;;;;;;;4347014;33;20182;-80
2021/08/30 13:18:05;;;;;;;9.77;5.80;;;;;;;;;;4359609;32;20158;-79
2021/08/30 13:20:31;;;;;;;11.95;6.35;;;;;;;;;;4346874;32;20257;-78
2021/08/30 13:22:56;;;;;;;12.15;5.65;;;;;;;;;;4356639;32;20155;-80
2021/08/30 13:25:24;;;;;;;12.63;6.07;;;;;;;;;;4357103;32;20601;-80
2021/08/30 13:28:09;;;;;;;9.63;5.60;;;;;;;;;;4346607;33;20178;-79
2021/08/30 13:30:52;;;;;;;11.70;5.75;;;;;;;;;;4359239;32;20345;-80
2021/08/30 13:33:18;;;;;;;9.80;5.47;;;;;;;;;;4334360;33;20179;-80
2021/08/30 13:35:43;;;;;;;11.02;5.90;;;;;;;;;;4346781;33;20238;-78
2021/08/30 13:38:08;;;;;;;8.73;5.40;;;;;;;;;;4359918;32;20127;-80
2021/08/30 13:40:39;;;;;;;10.38;5.53;;;;;;;;;;4346615;33;20528;-79
2021/08/30 13:43:07;;;;;;;9.45;4.95;;;;;;;;;;4346450;33;20183;-79
2021/08/30 13:45:34;;;;;;;7.28;5.28;;;;;;;;;;4347248;33;20214;-79
2021/08/30 13:48:00;;;;;;;9.13;5.10;;;;;;;;;;4345844;33;20154;-78
2021/08/30 13:50:39;;;;;;;11.77;5.30;;;;;;;;;;4359207;32;20181;-79
2021/08/30 13:53:08;;;;;;;13.48;5.18;;;;;;;;;;4346559;33;20281;-79
2021/08/30 13:55:45;;;;;;;9.18;5.00;;;;;;;;;;4346694;33;20635;-79
2021/08/30 13:58:12;;;;;;;11.45;6.12;;;;;;;;;;4347419;33;20163;-79
2021/08/30 14:00:38;;;;;;;14.27;5.45;;;;;;;;;;4346498;33;20194;-79
2021/08/30 14:03:03;;;;;;;13.80;5.55;;;;;;;;;;4346839;33;20186;-78
2021/08/30 14:05:47;;;;;;;13.18;5.53;;;;;;;;;;4346409;33;20177;-79
2021/08/30 14:08:14;;;;;;;14.80;5.80;;;;;;;;;;4357710;32;20171;-78
2021/08/30 14:10:40;;;;;;;11.50;5.57;;;;;;;;;;4346338;33;20147;-79
2021/08/30 14:13:06;;;;;;;12.27;5.72;;;;;;;;;;4337130;33;20238;-79
2021/08/30 14:15:31;;;;;;;17.65;6.37;;;;;;;;;;4338896;33;20151;-79
2021/08/30 14:17:59;;;;;;;17.95;6.85;;;;;;;;;;4343516;33;20159;-79
2021/08/30 14:20:25;;;;;;;11.45;5.43;;;;;;;;;;4345137;33;20226;-79
2021/08/30 14:22:52;;;;;;;9.82;5.53;;;;;;;;;;4337030;33;20155;-77
2021/08/30 14:25:22;;;;;;;8.85;5.25;;;;;;;;;;4331759;33;20159;-79
2021/08/30 14:28:03;;;;;;;10.05;5.40;;;;;;;;;;4344481;33;20178;-78
2021/08/30 14:30:57;;;;;;;10.82;5.07;;;;;;;;;;4346881;33;20573;-78
2021/08/30 14:33:22;;;;;;;13.45;7.30;;;;;;;;;;4347152;33;20151;-77
2021/08/30 14:35:51;;;;;;;10.20;5.37;;;;;;;;;;4346172;32;20249;-79
2021/08/30 14:38:28;;;;;;;13.82;5.55;;;;;;;;;;4346209;33;20162;-74
2021/08/30 14:40:54;;;;;;;16.52;5.87;;;;;;;;;;4346066;33;20182;-77
2021/08/30 14:43:19;;;;;;;11.55;5.82;;;;;;;;;;4345451;33;20151;-77
2021/08/30 14:45:44;;;;;;;15.75;5.62;;;;;;;;;;4342136;33;20156;-79
2021/08/30 14:48:12;;;;;;;25.33;6.22;;;;;;;;;;4355979;32;20156;-79
2021/08/30 14:50:37;;;;;;;14.07;5.82;;;;;;;;;;4361037;32;20195;-77
2021/08/30 14:53:10;;;;;;;14.48;5.82;;;;;;;;;;4359496;32;20248;-79
2021/08/30 14:55:35;;;;;;;13.43;5.93;;;;;;;;;;4351266;33;20250;-77
2021/08/30 14:58:01;;;;;;;11.23;5.57;;;;;;;;;;4357908;32;20159;-79
2021/08/30 15:00:26;;;;;;;9.80;5.37;;;;;;;;;;4356221;33;20158;-77
2021/08/30 15:02:51;;;;;;;9.55;5.12;;;;;;;;;;4352791;32;20160;-80
2021/08/30 15:05:24;;;;;;;10.55;4.62;;;;;;;;;;4348630;33;20159;-78
2021/08/30 15:07:49;;;;;;;8.18;5.00;;;;;;;;;;4360946;32;20162;-77
2021/08/30 15:10:17;;;;;;;10.10;4.90;;;;;;;;;;4357700;33;20497;-79
2021/08/30 15:12:42;;;;;;;9.88;5.10;;;;;;;;;;4361034;32;20152;-78
2021/08/30 15:15:10;;;;;;;9.90;5.03;;;;;;;;;;4360811;32;20181;-79
2021/08/30 15:17:39;;;;;;;11.12;5.15;;;;;;;;;;4360598;33;20154;-73
2021/08/30 15:20:04;;;;;;;9.27;5.40;;;;;;;;;;4360729;32;20272;-77
2021/08/30 15:22:35;;;;;;;10.25;5.50;;;;;;;;;;4344520;32;20155;-76
2021/08/30 15:25:04;;;;;;;12.68;5.20;;;;;;;;;;4357067;33;20147;-80
2021/08/30 15:27:38;;;;;;;7.78;4.87;;;;;;;;;;4369655;32;20225;-77
2021/08/30 15:30:04;;;;;;;9.65;4.97;;;;;;;;;;4360282;32;20174;-79
2021/08/30 15:32:36;;;;;;;11.35;4.87;;;;;;;;;;4345474;33;20186;-78
2021/08/30 15:35:02;;;;;;;11.23;4.45;;;;;;;;;;4332289;33;20190;-78
2021/08/30 15:37:27;;;;;;;9.57;4.90;;;;;;;;;;4333130;33;20154;-77
2021/08/30 15:39:56;;;;;;;9.02;4.90;;;;;;;;;;4347010;33;20182;-78
2021/08/30 15:42:30;;;;;;;12.82;5.03;;;;;;;;;;4362188;32;20636;-78
2021/08/30 15:45:07;;;;;;;;;;;;;;;;;;;;;
2021/08/30 15:47:34;;;;;;;10.23;5.05;;;;;;;;;;4359256;32;20178;-78
2021/08/30 15:49:59;;;;;;;9.43;5.10;;;;;;;;;;4360569;32;20155;-77